KCRP/CRP METAR and TAF weather

Enter ICAO airport designator
Station Type Date Time Source
KCRP METAR 2018/06/25 16:51 UTC NOAA

KCRP 251651Z 17016KT 10SM FEW026 SCT030 BKN040 BKN160 BKN250 29/26 A2997 RMK AO2 PK WND 15026/1606 SLP148 T02940256


Station Type Date Time Source
KCRP Decoded METAR 2018/06/25 16:51 UTC NOAA

CORPUS CHRISTI INTERNATIONAL , TX, United States (KCRP) 27-46N 97-31W 16M
Jun 25, 2018 - 12:51 PM EDT / 2018.06.25 1651 UTC
Wind: from the S (170 degrees) at 18 MPH (16 KT):0
Visibility: 10 mile(s):0
Sky conditions: mostly cloudy
Temperature: 84.9 F (29.4 C)
Dew Point: 78.1 F (25.6 C)
Relative Humidity: 80%
Pressure (altimeter): 29.97 in. Hg (1014 hPa)
ob: KCRP 251651Z 17016KT 10SM FEW026 SCT030 BKN040 BKN160 BKN250 29/26 A2997 RMK AO2 PK WND 15026/1606 SLP148 T02940256
cycle: 17

Station Type Date Time Source
KCRP TAF 2018/06/25 12:27 UTC NOAA

TAF KCRP 251123Z 2512/2612 16010KT P6SM VCSH SCT025
TEMPO 2512/2514 6SM SHRA BR BKN025
FM251400 16015G22KT P6SM VCTS SCT025CB
FM252100 14015G25KT P6SM BKN035
FM260200 14011KT P6SM SCT025


Example: see airport list